Time;durP1;ratioP1;P1;durP2;ratioP2;P2;SDS_P1;SDS_P2;PMS_P1;PMS_P2;Temp;Humidity;BMP_temperature;BMP_pressure;BME280_temperature;BME280_humidity;BME280_pressure;Samples;Min_cycle;Max_cycle;Signal;HPM_P1;HPM_P2
2023/09/13 00:00:15;;;;;;;18.80;16.90;;;20.50;99.90;;;;;;5086358;28;20630;-64
2023/09/13 00:02:42;;;;;;;20.53;18.43;;;20.50;99.90;;;;;;5083319;28;20660;-64
2023/09/13 00:05:08;;;;;;;22.03;18.90;;;20.50;99.90;;;;;;5085399;28;20454;-64
2023/09/13 00:07:35;;;;;;;21.60;19.33;;;20.50;99.90;;;;;;5084547;28;20423;-64
2023/09/13 00:10:01;;;;;;;21.80;19.50;;;20.40;99.90;;;;;;5085661;28;20429;-64
2023/09/13 00:12:27;;;;;;;20.97;18.97;;;20.30;99.90;;;;;;5084229;28;20423;-64
2023/09/13 00:14:52;;;;;;;23.23;19.73;;;20.30;99.90;;;;;;5085718;28;20223;-63
2023/09/13 00:17:21;;;;;;;21.93;18.17;;;20.30;99.90;;;;;;5084707;28;20172;-64
2023/09/13 00:19:47;;;;;;;19.90;17.30;;;20.30;99.90;;;;;;5085767;28;20747;-64
2023/09/13 00:22:12;;;;;;;19.33;16.77;;;20.20;99.90;;;;;;5085409;28;20450;-64
2023/09/13 00:24:38;;;;;;;19.27;17.13;;;20.20;99.90;;;;;;5084561;28;20766;-64
2023/09/13 00:27:04;;;;;;;20.10;17.70;;;20.20;99.90;;;;;;5085273;28;20245;-64
2023/09/13 00:29:33;;;;;;;19.03;16.97;;;20.20;99.90;;;;;;5084719;28;20230;-64
2023/09/13 00:32:02;;;;;;;18.73;16.87;;;20.20;99.90;;;;;;5085376;28;21052;-64
2023/09/13 00:34:29;;;;;;;22.27;20.07;;;20.10;99.90;;;;;;5082158;28;20474;-64
2023/09/13 00:36:55;;;;;;;22.37;19.97;;;20.10;99.90;;;;;;5083097;28;20553;-64
2023/09/13 00:39:21;;;;;;;25.27;22.57;;;20.10;99.90;;;;;;5084941;28;20451;-64
2023/09/13 00:41:47;;;;;;;29.87;23.07;;;20.00;99.90;;;;;;5085880;28;20429;-64
2023/09/13 00:44:12;;;;;;;24.73;22.10;;;20.00;99.90;;;;;;5085635;28;20176;-64
2023/09/13 00:46:38;;;;;;;25.20;22.27;;;20.00;99.90;;;;;;5085372;28;20188;-64
2023/09/13 00:49:05;;;;;;;27.57;24.57;;;20.00;99.90;;;;;;5085152;28;20649;-64
2023/09/13 00:51:30;;;;;;;29.17;25.57;;;20.00;99.90;;;;;;5084460;28;20462;-64
2023/09/13 00:53:58;;;;;;;29.87;26.57;;;20.00;99.90;;;;;;5085582;28;20524;-64
2023/09/13 00:56:25;;;;;;;31.23;28.03;;;20.10;99.90;;;;;;5083534;28;20418;-64
2023/09/13 00:58:51;;;;;;;31.80;27.57;;;20.10;99.90;;;;;;5084975;28;20514;-64
2023/09/13 01:01:17;;;;;;;34.00;29.40;;;20.10;99.90;;;;;;5084234;28;20418;-63
2023/09/13 01:03:43;;;;;;;32.23;28.43;;;20.10;99.90;;;;;;5085124;28;20196;-64
2023/09/13 01:06:10;;;;;;;30.77;27.40;;;20.20;99.90;;;;;;5084946;28;20426;-64
2023/09/13 01:08:41;;;;;;;36.17;31.07;;;20.20;99.90;;;;;;5084192;28;20509;-64
2023/09/13 01:11:07;;;;;;;34.10;30.50;;;20.20;99.90;;;;;;5084299;28;20423;-64
2023/09/13 01:13:34;;;;;;;40.30;32.00;;;20.20;99.90;;;;;;5084252;28;20461;-64
2023/09/13 01:16:14;;;;;;;36.80;32.27;;;20.20;99.90;;;;;;5084663;28;20745;-64
2023/09/13 01:19:15;;;;;;;37.70;31.70;;;20.20;99.90;;;;;;5084436;28;21168;-64
2023/09/13 01:21:47;;;;;;;35.43;31.50;;;20.20;99.90;;;;;;5079154;28;20418;-64
2023/09/13 01:24:45;;;;;;;37.03;32.97;;;20.20;99.90;;;;;;5083835;28;20442;-64
2023/09/13 01:27:13;;;;;;;38.97;31.10;;;20.20;99.90;;;;;;5065825;28;20453;-64
2023/09/13 01:29:40;;;;;;;35.67;31.87;;;20.20;99.90;;;;;;5083860;28;20780;-64
2023/09/13 01:32:06;;;;;;;39.70;34.80;;;20.20;99.90;;;;;;5084006;28;20438;-64
2023/09/13 01:34:32;;;;;;;41.57;36.90;;;20.20;99.90;;;;;;5083348;28;21235;-64
2023/09/13 01:36:58;;;;;;;43.23;35.73;;;20.20;99.90;;;;;;5084073;28;20483;-64
2023/09/13 01:39:24;;;;;;;37.67;33.67;;;20.20;99.90;;;;;;5083279;28;20180;-64
2023/09/13 01:41:56;;;;;;;38.97;34.67;;;20.10;99.90;;;;;;5083872;28;20431;-63
2023/09/13 01:44:22;;;;;;;39.97;35.47;;;20.10;99.90;;;;;;5083304;28;20180;-64
2023/09/13 01:46:50;;;;;;;45.73;36.80;;;20.10;99.90;;;;;;5084053;28;20920;-64
2023/09/13 01:49:18;;;;;;;37.77;32.90;;;20.10;99.90;;;;;;5083212;28;20250;-64
2023/09/13 01:51:45;;;;;;;39.20;34.57;;;20.10;99.90;;;;;;5083850;28;20423;-64
2023/09/13 01:54:10;;;;;;;39.70;34.90;;;20.10;99.90;;;;;;5082993;28;20462;-64
2023/09/13 01:56:36;;;;;;;37.23;32.80;;;20.00;99.90;;;;;;5083607;28;20515;-64
2023/09/13 01:59:02;;;;;;;38.03;33.93;;;20.00;99.90;;;;;;5083979;28;20207;-64
2023/09/13 02:01:28;;;;;;;37.07;32.37;;;20.00;99.90;;;;;;5083065;28;20234;-64
2023/09/13 02:03:54;;;;;;;40.37;34.40;;;20.00;99.90;;;;;;5080613;28;20184;-65
2023/09/13 02:06:20;;;;;;;37.60;33.47;;;20.00;99.90;;;;;;5081555;28;20192;-65
2023/09/13 02:08:46;;;;;;;36.60;31.67;;;20.00;99.90;;;;;;5083196;28;20441;-64
2023/09/13 02:11:11;;;;;;;34.50;30.90;;;20.00;99.90;;;;;;5082968;28;20180;-64
2023/09/13 02:13:37;;;;;;;35.83;31.40;;;20.00;99.90;;;;;;5083319;28;20825;-64
2023/09/13 02:16:03;;;;;;;31.97;27.70;;;20.10;99.90;;;;;;5082977;28;20185;-64
2023/09/13 02:18:29;;;;;;;37.93;30.93;;;20.00;99.90;;;;;;5082533;28;20517;-64
2023/09/13 02:20:55;;;;;;;37.93;33.37;;;20.00;99.90;;;;;;5082579;28;20276;-64
2023/09/13 02:23:20;;;;;;;34.93;31.23;;;20.00;99.90;;;;;;5082346;28;20180;-64
2023/09/13 02:25:46;;;;;;;36.53;32.63;;;20.00;99.90;;;;;;5084059;28;20334;-64
2023/09/13 02:28:13;;;;;;;34.80;30.20;;;20.00;99.90;;;;;;5082625;28;20203;-64
2023/09/13 02:30:39;;;;;;;32.50;29.00;;;20.00;99.90;;;;;;5082036;28;20797;-64
2023/09/13 02:33:06;;;;;;;34.93;30.53;;;20.00;99.90;;;;;;5081178;28;20561;-64
2023/09/13 02:35:32;;;;;;;33.30;28.83;;;20.00;99.90;;;;;;5081226;28;20418;-64
2023/09/13 02:37:58;;;;;;;30.13;26.83;;;20.10;99.90;;;;;;5083098;28;20484;-65
2023/09/13 02:40:24;;;;;;;28.60;25.63;;;20.00;99.90;;;;;;5082025;28;20434;-65
2023/09/13 02:42:50;;;;;;;26.93;23.97;;;20.00;99.90;;;;;;5081287;28;20422;-64
2023/09/13 02:45:16;;;;;;;27.87;24.83;;;20.00;99.90;;;;;;5081982;28;20422;-64
2023/09/13 02:47:43;;;;;;;25.50;22.80;;;20.00;99.90;;;;;;5083044;28;20185;-64
2023/09/13 02:50:09;;;;;;;29.73;24.80;;;20.00;99.90;;;;;;5081679;28;20429;-64
2023/09/13 02:52:35;;;;;;;26.73;24.03;;;20.00;99.90;;;;;;5082402;28;20427;-64
2023/09/13 02:55:05;;;;;;;28.17;25.13;;;20.00;99.90;;;;;;5082083;28;20549;-64
2023/09/13 02:57:31;;;;;;;29.13;26.10;;;20.00;99.90;;;;;;5081960;28;20181;-64
2023/09/13 02:59:57;;;;;;;31.23;27.90;;;19.90;99.90;;;;;;5082347;28;20422;-64
2023/09/13 03:02:23;;;;;;;36.50;29.77;;;20.00;99.90;;;;;;5081632;28;20425;-64
2023/09/13 03:04:53;;;;;;;34.43;30.03;;;20.00;99.90;;;;;;5080815;28;20438;-64
2023/09/13 03:07:19;;;;;;;40.03;30.97;;;20.00;99.90;;;;;;5082078;28;20172;-64
2023/09/13 03:09:45;;;;;;;42.50;32.70;;;20.00;99.90;;;;;;5083091;28;20422;-64
2023/09/13 03:12:12;;;;;;;39.77;34.30;;;19.90;99.90;;;;;;5082045;28;20418;-65
2023/09/13 03:14:37;;;;;;;40.17;34.00;;;19.90;99.90;;;;;;5082146;28;20519;-64
2023/09/13 03:17:03;;;;;;;43.17;34.23;;;19.90;99.90;;;;;;5082189;28;21007;-64
2023/09/13 03:19:30;;;;;;;40.43;33.00;;;19.90;99.90;;;;;;5082274;28;20180;-64
2023/09/13 03:21:56;;;;;;;41.37;34.07;;;19.90;99.90;;;;;;5082685;28;20590;-64
2023/09/13 03:24:22;;;;;;;42.00;34.57;;;19.90;99.90;;;;;;5081480;28;20634;-65
2023/09/13 03:26:47;;;;;;;41.83;34.67;;;19.90;99.90;;;;;;5081783;28;20548;-64
2023/09/13 03:29:13;;;;;;;42.03;34.03;;;19.90;99.90;;;;;;5081879;28;20192;-64
2023/09/13 03:31:39;;;;;;;39.60;34.27;;;19.90;99.90;;;;;;5077314;28;20176;-64
2023/09/13 03:34:04;;;;;;;44.53;36.00;;;19.90;99.90;;;;;;5080325;28;20656;-64
2023/09/13 03:36:30;;;;;;;41.80;33.73;;;19.90;99.90;;;;;;5082165;28;20254;-65
2023/09/13 03:38:56;;;;;;;43.73;34.13;;;19.90;99.90;;;;;;5082224;28;20241;-64
2023/09/13 03:41:26;;;;;;;43.67;36.37;;;19.90;99.90;;;;;;5080496;28;20211;-64
2023/09/13 03:43:51;;;;;;;41.70;34.13;;;19.80;99.90;;;;;;5082441;28;20184;-64
2023/09/13 03:46:17;;;;;;;38.47;32.93;;;19.80;99.90;;;;;;5080827;28;20878;-64
2023/09/13 03:48:43;;;;;;;41.33;33.40;;;19.80;99.90;;;;;;5082411;28;20739;-64
2023/09/13 03:51:09;;;;;;;39.67;32.30;;;19.80;99.90;;;;;;5081502;28;20425;-64
2023/09/13 03:53:35;;;;;;;36.27;32.07;;;19.80;99.90;;;;;;5081945;28;20809;-64
2023/09/13 03:56:03;;;;;;;38.40;32.23;;;19.80;99.90;;;;;;5081343;28;20271;-64
2023/09/13 03:58:28;;;;;;;35.00;30.80;;;19.80;99.90;;;;;;5082406;28;20495;-64
2023/09/13 04:00:54;;;;;;;38.30;31.57;;;19.70;99.90;;;;;;5081560;28;20530;-64
2023/09/13 04:03:21;;;;;;;38.77;29.63;;;19.70;99.90;;;;;;5081702;28;20483;-64
2023/09/13 04:05:47;;;;;;;36.57;31.00;;;19.70;99.90;;;;;;5082451;28;20173;-64
2023/09/13 04:08:13;;;;;;;36.33;29.37;;;19.60;99.90;;;;;;5081352;28;20438;-65
2023/09/13 04:10:38;;;;;;;31.87;26.10;;;19.60;99.90;;;;;;5081840;28;20625;-65
2023/09/13 04:13:05;;;;;;;32.33;26.50;;;19.60;99.90;;;;;;5081350;28;20446;-65
2023/09/13 04:15:30;;;;;;;32.50;26.47;;;19.60;99.90;;;;;;5082291;28;20188;-65
2023/09/13 04:17:56;;;;;;;37.77;28.80;;;19.60;99.90;;;;;;5082036;28;21225;-65
2023/09/13 04:20:22;;;;;;;30.27;26.67;;;19.60;99.90;;;;;;5081285;28;20184;-65
2023/09/13 04:22:48;;;;;;;30.43;26.30;;;19.60;99.90;;;;;;5082292;28;20176;-65
2023/09/13 04:25:14;;;;;;;30.53;26.33;;;19.60;99.90;;;;;;5080857;28;20433;-65
2023/09/13 04:27:47;;;;;;;32.63;26.80;;;19.60;99.90;;;;;;5077430;28;20799;-65
2023/09/13 04:30:15;;;;;;;30.07;26.80;;;19.60;99.90;;;;;;5081681;28;20418;-65
2023/09/13 04:32:41;;;;;;;27.53;24.03;;;19.60;99.90;;;;;;5085943;28;20757;-65
2023/09/13 04:35:07;;;;;;;30.93;25.80;;;19.60;99.90;;;;;;5084844;28;20462;-65
2023/09/13 04:37:33;;;;;;;32.00;27.00;;;19.60;99.90;;;;;;5085678;28;20426;-65
2023/09/13 04:40:01;;;;;;;31.23;23.37;;;19.60;99.90;;;;;;5085439;28;21087;-65
2023/09/13 04:42:26;;;;;;;26.37;22.10;;;19.60;99.90;;;;;;5084663;28;20514;-65
2023/09/13 04:44:52;;;;;;;25.13;20.93;;;19.50;99.90;;;;;;5079501;28;21202;-65
2023/09/13 04:47:18;;;;;;;25.10;20.63;;;19.50;99.90;;;;;;5084065;28;21024;-65
2023/09/13 04:49:44;;;;;;;26.70;22.53;;;19.60;99.90;;;;;;5082812;28;20342;-65
2023/09/13 04:52:10;;;;;;;24.57;21.00;;;19.60;99.90;;;;;;5074508;28;20448;-65
2023/09/13 04:54:36;;;;;;;28.70;23.87;;;19.60;99.90;;;;;;5084860;28;20604;-65
2023/09/13 04:57:03;;;;;;;29.07;22.67;;;19.60;99.90;;;;;;5084105;28;21164;-65
2023/09/13 04:59:42;;;;;;;28.63;24.53;;;19.60;99.90;;;;;;5085484;28;20453;-65
2023/09/13 05:02:11;;;;;;;28.60;24.27;;;19.50;99.90;;;;;;5081252;28;20434;-65
2023/09/13 05:04:37;;;;;;;30.43;25.60;;;19.60;99.90;;;;;;5084451;28;20484;-65
2023/09/13 05:07:03;;;;;;;29.37;25.47;;;19.60;99.90;;;;;;5083964;28;20414;-65
2023/09/13 05:09:28;;;;;;;33.00;27.47;;;19.50;99.90;;;;;;5085370;28;20438;-65
2023/09/13 05:11:54;;;;;;;35.00;30.70;;;19.50;99.90;;;;;;5082858;28;20180;-65
2023/09/13 05:14:20;;;;;;;38.60;30.00;;;19.50;99.90;;;;;;5083954;28;20214;-65
2023/09/13 05:16:45;;;;;;;39.10;32.03;;;19.60;99.90;;;;;;5084996;28;20229;-65
2023/09/13 05:19:11;;;;;;;39.17;32.43;;;19.60;99.90;;;;;;5084603;28;20642;-65
2023/09/13 05:21:38;;;;;;;48.20;33.33;;;19.50;99.90;;;;;;5083766;28;20188;-65
2023/09/13 05:24:03;;;;;;;42.83;34.00;;;19.60;99.90;;;;;;5078606;28;20180;-65
2023/09/13 05:26:29;;;;;;;42.13;32.57;;;19.60;99.90;;;;;;5084793;28;20947;-65
2023/09/13 05:28:55;;;;;;;43.83;32.10;;;19.60;99.90;;;;;;5083738;28;20234;-65
2023/09/13 05:31:21;;;;;;;45.50;35.00;;;19.60;99.90;;;;;;5084284;28;20426;-65
2023/09/13 05:33:46;;;;;;;46.00;36.60;;;19.60;99.90;;;;;;5084517;28;20231;-65
2023/09/13 05:36:13;;;;;;;50.40;36.80;;;19.60;99.90;;;;;;5083409;28;20183;-65
2023/09/13 05:38:40;;;;;;;47.40;34.70;;;19.60;99.90;;;;;;5084983;28;20542;-65
2023/09/13 05:41:07;;;;;;;49.80;36.00;;;19.50;99.90;;;;;;5083596;28;20501;-65
2023/09/13 05:43:38;;;;;;;45.67;34.70;;;19.50;99.90;;;;;;5084758;28;20467;-65
2023/09/13 05:46:04;;;;;;;47.77;36.00;;;19.50;99.90;;;;;;5075504;28;20439;-65
2023/09/13 05:48:30;;;;;;;49.37;35.60;;;19.50;99.90;;;;;;5083842;28;20441;-65
2023/09/13 05:50:56;;;;;;;45.67;35.57;;;19.50;99.90;;;;;;5078738;28;20523;-65
2023/09/13 05:53:22;;;;;;;51.90;35.90;;;19.50;99.90;;;;;;5082041;28;20481;-65
2023/09/13 05:55:48;;;;;;;43.87;33.47;;;19.50;99.90;;;;;;5079040;28;20172;-65
2023/09/13 05:58:14;;;;;;;50.13;36.67;;;19.50;99.90;;;;;;5081909;28;20583;-65
2023/09/13 06:00:46;;;;;;;47.43;34.23;;;19.50;99.90;;;;;;5083291;28;20442;-65
2023/09/13 06:03:11;;;;;;;42.67;32.80;;;19.40;99.90;;;;;;5083128;28;20192;-65
2023/09/13 06:05:37;;;;;;;43.83;31.30;;;19.40;99.90;;;;;;5082987;28;20982;-65
2023/09/13 06:08:03;;;;;;;39.90;29.57;;;19.40;99.90;;;;;;5082603;28;20282;-65
2023/09/13 06:10:29;;;;;;;42.40;32.00;;;19.50;99.90;;;;;;5080365;28;20434;-65
2023/09/13 06:12:55;;;;;;;45.33;30.73;;;19.50;99.90;;;;;;5082662;28;20783;-65
2023/09/13 06:15:21;;;;;;;44.47;32.50;;;19.50;99.90;;;;;;5083150;28;20604;-65
2023/09/13 06:17:47;;;;;;;40.37;29.57;;;19.50;99.90;;;;;;5083421;28;20271;-65
2023/09/13 06:20:12;;;;;;;41.03;29.57;;;19.50;99.90;;;;;;5080407;28;21346;-65
2023/09/13 06:22:38;;;;;;;38.60;29.23;;;19.50;99.90;;;;;;5083455;28;20484;-65
2023/09/13 06:25:04;;;;;;;41.33;28.53;;;19.50;99.90;;;;;;5082711;28;20427;-64
2023/09/13 06:27:30;;;;;;;37.03;29.23;;;19.50;99.90;;;;;;5083080;28;20767;-65
2023/09/13 06:29:56;;;;;;;40.27;29.20;;;19.50;99.90;;;;;;5082304;28;20445;-65
2023/09/13 06:32:22;;;;;;;36.07;27.70;;;19.50;99.90;;;;;;5082734;28;20449;-65
2023/09/13 06:34:48;;;;;;;40.37;29.97;;;19.50;99.90;;;;;;5082489;28;20466;-65
2023/09/13 06:37:14;;;;;;;38.80;29.83;;;19.50;99.90;;;;;;5082454;28;20419;-65
2023/09/13 06:39:40;;;;;;;42.90;29.60;;;19.40;99.90;;;;;;5081958;28;20179;-65
2023/09/13 06:42:06;;;;;;;38.07;30.70;;;19.50;99.90;;;;;;5082601;28;20534;-65
2023/09/13 06:44:33;;;;;;;38.97;29.53;;;19.30;99.90;;;;;;5083037;28;20184;-65
2023/09/13 06:46:59;;;;;;;40.80;30.00;;;19.30;99.90;;;;;;5082602;28;20442;-65
2023/09/13 06:49:24;;;;;;;42.30;31.47;;;19.30;99.90;;;;;;5083264;28;20978;-65
2023/09/13 06:51:51;;;;;;;46.87;31.20;;;19.30;99.90;;;;;;5082392;28;20445;-65
2023/09/13 06:54:18;;;;;;;43.57;30.17;;;19.30;99.90;;;;;;5081920;28;20688;-65
2023/09/13 06:56:44;;;;;;;39.63;30.70;;;19.30;99.90;;;;;;5082497;28;20904;-65
2023/09/13 06:59:10;;;;;;;38.50;29.00;;;19.30;99.90;;;;;;5082323;28;20600;-65
2023/09/13 07:01:37;;;;;;;43.10;30.00;;;19.30;99.90;;;;;;5081330;28;21107;-65
2023/09/13 07:04:03;;;;;;;41.87;29.57;;;19.30;99.90;;;;;;5082179;28;20438;-65
2023/09/13 07:06:29;;;;;;;42.47;29.60;;;19.40;99.90;;;;;;5079625;28;20787;-65
2023/09/13 07:08:55;;;;;;;35.03;27.20;;;19.40;99.90;;;;;;5081591;28;20410;-65
2023/09/13 07:11:22;;;;;;;38.30;28.70;;;19.50;99.90;;;;;;5081754;28;20430;-65
2023/09/13 07:13:48;;;;;;;30.70;24.57;;;19.50;99.90;;;;;;5081967;28;20559;-65
2023/09/13 07:16:14;;;;;;;35.67;27.97;;;19.50;99.90;;;;;;5079309;28;20430;-65
2023/09/13 07:18:39;;;;;;;36.73;27.33;;;19.50;99.90;;;;;;5081181;28;20558;-65
2023/09/13 07:21:05;;;;;;;37.60;28.90;;;19.40;99.90;;;;;;5081465;28;20192;-65
2023/09/13 07:23:31;;;;;;;40.40;27.50;;;19.40;99.90;;;;;;5082129;28;20187;-65
2023/09/13 07:25:57;;;;;;;38.77;29.07;;;19.30;99.90;;;;;;5081348;28;20679;-65
2023/09/13 07:28:22;;;;;;;39.87;28.73;;;19.30;99.90;;;;;;5081875;28;20168;-65
2023/09/13 07:30:48;;;;;;;37.93;29.23;;;19.30;99.90;;;;;;5081150;28;20207;-65
2023/09/13 07:33:14;;;;;;;36.53;27.37;;;19.30;99.90;;;;;;5082139;28;20522;-65
2023/09/13 07:35:40;;;;;;;36.83;28.97;;;19.30;99.90;;;;;;5076971;28;20706;-65
2023/09/13 07:38:05;;;;;;;37.37;27.53;;;19.30;99.90;;;;;;5081247;28;20789;-65
2023/09/13 07:40:31;;;;;;;38.13;28.27;;;19.40;99.90;;;;;;5082056;28;20180;-65
2023/09/13 07:42:58;;;;;;;36.47;28.37;;;19.40;99.90;;;;;;5082217;28;20176;-65
2023/09/13 07:45:24;;;;;;;37.97;29.47;;;19.40;99.90;;;;;;5081862;28;20650;-64
2023/09/13 07:47:50;;;;;;;39.50;28.50;;;19.30;99.90;;;;;;5081464;28;20426;-64
2023/09/13 07:50:29;;;;;;;36.97;29.13;;;19.30;99.90;;;;;;5082284;28;20419;-65
2023/09/13 07:52:55;;;;;;;40.27;30.20;;;19.40;99.90;;;;;;5081167;28;20184;-65
2023/09/13 07:55:21;;;;;;;41.13;29.90;;;19.40;99.90;;;;;;5081957;28;20563;-65
2023/09/13 07:57:47;;;;;;;38.07;29.77;;;19.40;99.90;;;;;;5081308;28;20191;-65
2023/09/13 08:00:13;;;;;;;40.10;30.07;;;19.50;99.90;;;;;;5082114;28;20317;-65
2023/09/13 08:02:41;;;;;;;43.43;30.33;;;19.50;99.90;;;;;;5076534;28;20376;-65
2023/09/13 08:05:07;;;;;;;38.50;29.33;;;19.60;99.90;;;;;;5081045;28;20427;-65
2023/09/13 08:07:33;;;;;;;39.47;29.10;;;19.60;99.90;;;;;;5086215;28;20440;-65
2023/09/13 08:10:01;;;;;;;40.30;29.07;;;19.70;99.90;;;;;;5085402;28;20423;-65
2023/09/13 08:12:27;;;;;;;44.47;32.03;;;19.70;99.90;;;;;;5082821;28;20196;-64
2023/09/13 08:14:52;;;;;;;37.90;28.70;;;19.70;99.90;;;;;;5081644;28;20470;-65
2023/09/13 08:17:18;;;;;;;45.27;31.23;;;19.70;99.90;;;;;;5077975;28;20641;-65
2023/09/13 08:19:43;;;;;;;39.70;30.30;;;19.70;99.90;;;;;;5084518;28;20187;-65
2023/09/13 08:22:09;;;;;;;41.57;29.20;;;19.60;99.90;;;;;;5084138;28;20180;-65
2023/09/13 08:24:35;;;;;;;39.90;29.30;;;19.60;99.90;;;;;;5084939;28;20698;-65
2023/09/13 08:27:00;;;;;;;38.43;30.10;;;19.60;99.90;;;;;;5084588;28;20310;-65
2023/09/13 08:29:26;;;;;;;40.43;28.37;;;19.70;99.90;;;;;;5082920;28;20181;-65
2023/09/13 08:31:52;;;;;;;38.87;28.20;;;19.80;99.90;;;;;;5084731;28;20613;-65
2023/09/13 08:34:17;;;;;;;40.10;28.50;;;19.90;99.90;;;;;;5085433;28;20693;-65
2023/09/13 08:36:43;;;;;;;38.00;26.97;;;19.90;99.90;;;;;;5084292;28;20180;-65
2023/09/13 08:39:09;;;;;;;35.83;27.73;;;19.90;99.90;;;;;;5085151;28;20478;-65
2023/09/13 08:41:35;;;;;;;40.30;28.87;;;19.80;99.90;;;;;;5085297;28;20177;-65
2023/09/13 08:44:04;;;;;;;39.10;29.30;;;19.80;99.90;;;;;;5084699;28;20193;-65
2023/09/13 08:46:30;;;;;;;40.47;29.30;;;19.70;99.90;;;;;;5085368;28;20795;-65
2023/09/13 08:48:57;;;;;;;40.13;28.73;;;19.70;99.90;;;;;;5080726;28;20862;-65
2023/09/13 08:51:24;;;;;;;35.43;28.07;;;19.70;99.90;;;;;;5080644;28;20449;-65
2023/09/13 08:53:53;;;;;;;33.93;26.63;;;19.70;99.90;;;;;;5083728;28;20473;-65
2023/09/13 08:56:21;;;;;;;37.60;28.67;;;19.70;99.90;;;;;;5081441;28;20449;-65
2023/09/13 08:58:47;;;;;;;34.20;26.53;;;19.60;99.90;;;;;;5078680;28;20434;-65
2023/09/13 09:01:14;;;;;;;39.67;28.30;;;19.70;99.90;;;;;;5082144;28;21062;-65
2023/09/13 09:03:41;;;;;;;42.27;30.13;;;19.60;99.90;;;;;;5074797;28;20181;-65
2023/09/13 09:50:52;;;;;;;28.77;23.37;;;20.10;99.90;;;;;;5072506;27;21102;-65
2023/09/13 09:53:29;;;;;;;31.37;22.47;;;20.30;99.90;;;;;;5064205;27;20485;-64
2023/09/13 09:55:54;;;;;;;32.43;23.57;;;20.30;99.90;;;;;;5044466;28;20432;-64
2023/09/13 09:58:21;;;;;;;27.50;22.87;;;20.40;99.90;;;;;;5045336;28;20523;-64
2023/09/13 10:00:52;;;;;;;29.63;23.30;;;20.50;99.90;;;;;;5053719;27;20235;-65
2023/09/13 10:03:21;;;;;;;26.00;21.10;;;20.80;99.90;;;;;;5090935;27;21094;-65
2023/09/13 10:06:03;;;;;;;25.90;22.73;;;21.10;99.90;;;;;;5049472;28;21096;-64
2023/09/13 10:08:50;;;;;;;26.33;20.80;;;21.30;99.90;;;;;;5052695;28;20993;-64
2023/09/13 10:11:20;;;;;;;26.87;21.33;;;21.50;99.90;;;;;;5048180;28;20432;-64
2023/09/13 10:13:46;;;;;;;28.23;24.27;;;21.60;99.90;;;;;;5053090;28;21249;-65
2023/09/13 10:16:14;;;;;;;23.70;21.17;;;21.60;99.90;;;;;;5051748;28;20436;-64
2023/09/13 10:33:09;;;;;;;13.27;10.80;;;21.20;99.90;;;;;;5099504;27;21136;-62
2023/09/13 10:35:41;;;;;;;10.77;9.63;;;20.40;99.90;;;;;;5089373;28;20969;-63
2023/09/13 10:38:11;;;;;;;9.73;8.77;;;20.20;99.90;;;;;;5093366;28;20425;-64
2023/09/13 10:40:41;;;;;;;8.10;7.17;;;20.10;99.90;;;;;;5085204;28;20442;-64
2023/09/13 10:43:08;;;;;;;6.93;5.77;;;20.10;99.90;;;;;;5094131;28;20656;-64
2023/09/13 10:45:34;;;;;;;7.70;5.97;;;20.00;99.90;;;;;;5091099;28;20737;-64
2023/09/13 10:48:01;;;;;;;6.50;5.27;;;20.10;99.90;;;;;;5095291;28;20414;-64
2023/09/13 10:50:27;;;;;;;5.33;4.80;;;20.10;99.90;;;;;;5088496;28;20426;-64
2023/09/13 10:52:53;;;;;;;5.00;4.50;;;20.10;99.90;;;;;;5090352;28;21297;-64
2023/09/13 10:55:19;;;;;;;4.77;3.97;;;20.10;99.90;;;;;;5094113;28;20263;-64
2023/09/13 10:57:46;;;;;;;4.20;3.80;;;20.00;99.90;;;;;;5091349;28;20434;-64
2023/09/13 11:00:14;;;;;;;5.70;4.03;;;19.90;99.90;;;;;;5088273;28;20494;-63
2023/09/13 11:02:42;;;;;;;4.70;4.27;;;19.80;99.90;;;;;;5065110;28;20972;-64
2023/09/13 11:05:09;;;;;;;3.93;3.53;;;19.80;99.90;;;;;;5092568;28;20436;-64
2023/09/13 11:07:49;;;;;;;6.23;4.60;;;19.70;99.90;;;;;;5088250;28;20429;-64
2023/09/13 11:10:19;;;;;;;4.67;3.60;;;19.60;99.90;;;;;;5090441;28;20428;-64
2023/09/13 11:12:51;;;;;;;4.10;3.70;;;19.50;99.90;;;;;;5087524;28;20476;-64
2023/09/13 11:15:24;;;;;;;6.47;3.47;;;19.30;99.90;;;;;;5086945;28;20780;-63
2023/09/13 11:17:56;;;;;;;4.63;4.10;;;19.30;99.90;;;;;;5090989;28;20414;-63
2023/09/13 11:20:35;;;;;;;5.00;3.90;;;19.10;99.90;;;;;;5085272;28;20433;-64
2023/09/13 11:23:11;;;;;;;4.33;4.03;;;19.10;99.90;;;;;;5092180;28;20427;-63
2023/09/13 11:25:47;;;;;;;3.70;3.40;;;19.00;99.90;;;;;;5089239;28;21194;-64
2023/09/13 11:28:37;;;;;;;4.77;4.37;;;18.90;99.90;;;;;;5089361;28;20422;-64
2023/09/13 11:31:04;;;;;;;4.77;3.70;;;18.80;99.90;;;;;;5089577;28;20842;-64
2023/09/13 11:33:37;;;;;;;5.90;3.83;;;18.80;99.90;;;;;;5097339;28;21044;-64
2023/09/13 11:36:03;;;;;;;3.73;3.37;;;18.80;99.90;;;;;;5100077;28;20468;-64
2023/09/13 11:38:30;;;;;;;3.23;2.80;;;18.70;99.90;;;;;;5094629;28;21011;-64
2023/09/13 11:40:57;;;;;;;3.97;3.67;;;18.70;99.90;;;;;;5095052;28;20422;-63
2023/09/13 11:43:23;;;;;;;4.43;3.70;;;18.60;99.90;;;;;;5092646;28;20618;-64
2023/09/13 11:45:50;;;;;;;5.33;3.10;;;18.50;99.90;;;;;;5095383;28;20838;-64
2023/09/13 11:48:40;;;;;;;4.17;3.77;;;18.40;99.90;;;;;;5095500;28;20880;-64
2023/09/13 11:51:14;;;;;;;4.27;3.87;;;18.50;99.90;;;;;;5093921;28;20952;-64
2023/09/13 11:53:41;;;;;;;3.07;2.77;;;18.50;99.90;;;;;;5093917;28;20756;-64
2023/09/13 11:56:28;;;;;;;3.60;3.40;;;18.70;99.90;;;;;;5094404;28;20434;-62
2023/09/13 11:58:58;;;;;;;3.50;3.20;;;18.80;99.90;;;;;;5098880;28;20437;-64
2023/09/13 12:01:24;;;;;;;4.80;3.40;;;18.90;99.90;;;;;;5086037;28;20567;-64
2023/09/13 12:03:52;;;;;;;3.20;2.77;;;18.90;99.90;;;;;;5094039;28;20932;-64
2023/09/13 12:06:19;;;;;;;3.23;2.80;;;18.90;99.90;;;;;;5095025;28;20428;-63
2023/09/13 12:08:46;;;;;;;3.07;2.87;;;18.90;99.90;;;;;;5095899;28;20426;-64
2023/09/13 12:11:12;;;;;;;4.40;2.40;;;19.00;99.90;;;;;;5090951;28;20462;-64
2023/09/13 12:13:48;;;;;;;3.77;3.33;;;19.00;99.90;;;;;;5089254;28;20434;-64
2023/09/13 12:16:15;;;;;;;3.10;2.87;;;19.20;99.90;;;;;;5096714;28;20175;-64
2023/09/13 12:18:42;;;;;;;4.67;2.60;;;19.30;99.90;;;;;;5092608;28;20418;-64
2023/09/13 12:21:10;;;;;;;3.77;3.47;;;19.50;99.90;;;;;;5090987;28;20832;-64
2023/09/13 12:23:42;;;;;;;5.20;3.27;;;19.40;99.90;;;;;;5092673;28;20922;-64
2023/09/13 12:26:10;;;;;;;2.83;2.40;;;19.40;99.90;;;;;;5089553;28;20414;-63
2023/09/13 12:28:39;;;;;;;5.30;2.90;;;19.30;99.90;;;;;;5091098;28;20418;-64
2023/09/13 12:31:13;;;;;;;3.77;2.73;;;19.20;99.90;;;;;;5093740;28;20480;-64
2023/09/13 12:33:49;;;;;;;3.60;3.00;;;19.30;99.90;;;;;;5091088;28;20423;-64
2023/09/13 12:36:19;;;;;;;3.30;3.00;;;19.30;99.90;;;;;;5100742;28;21036;-63
2023/09/13 12:38:46;;;;;;;4.30;3.20;;;19.30;99.90;;;;;;5090661;28;20835;-64
2023/09/13 12:41:17;;;;;;;4.10;2.80;;;19.30;99.90;;;;;;5098547;28;20430;-64
2023/09/13 12:43:45;;;;;;;3.10;2.40;;;19.20;99.90;;;;;;5091660;28;20943;-64
2023/09/13 12:46:17;;;;;;;2.67;2.10;;;19.10;99.90;;;;;;5093603;28;20417;-63
2023/09/13 12:48:44;;;;;;;3.67;2.63;;;19.20;99.90;;;;;;5095423;28;20457;-64
2023/09/13 12:51:10;;;;;;;2.87;2.10;;;19.10;99.90;;;;;;5092392;28;20507;-64
2023/09/13 12:53:37;;;;;;;3.17;2.40;;;19.00;99.90;;;;;;5090861;28;20437;-63
2023/09/13 12:56:03;;;;;;;3.23;1.90;;;19.00;99.90;;;;;;5091060;28;20488;-64
2023/09/13 12:58:29;;;;;;;1.97;1.87;;;19.00;99.90;;;;;;5088907;28;20889;-63
2023/09/13 13:01:04;;;;;;;1.97;1.80;;;19.00;99.90;;;;;;5094120;28;20562;-63
2023/09/13 13:03:32;;;;;;;3.60;2.27;;;18.90;99.90;;;;;;5093550;28;20513;-63
2023/09/13 13:06:04;;;;;;;4.43;2.07;;;19.00;99.90;;;;;;5093536;28;20422;-63
2023/09/13 13:08:39;;;;;;;3.73;1.90;;;19.00;99.90;;;;;;5090623;28;20860;-63
2023/09/13 13:11:06;;;;;;;3.03;2.17;;;19.10;99.90;;;;;;5093045;28;20457;-64
2023/09/13 13:13:38;;;;;;;2.33;1.60;;;19.00;99.90;;;;;;5090795;28;20429;-64
2023/09/13 13:16:15;;;;;;;2.53;1.90;;;19.10;99.90;;;;;;5090962;28;20561;-65
2023/09/13 13:18:48;;;;;;;2.43;1.87;;;19.00;99.90;;;;;;5091069;28;20438;-65
2023/09/13 13:21:15;;;;;;;2.67;2.30;;;19.10;99.90;;;;;;5089100;28;20926;-64
2023/09/13 13:23:47;;;;;;;2.93;1.83;;;19.10;99.90;;;;;;5091136;28;20441;-65
2023/09/13 13:26:13;;;;;;;3.80;1.80;;;19.00;99.90;;;;;;5098280;28;20438;-65
2023/09/13 13:28:40;;;;;;;2.00;1.60;;;19.20;99.90;;;;;;5092229;28;20426;-65
2023/09/13 13:31:05;;;;;;;1.53;1.33;;;19.30;99.90;;;;;;5094621;28;20465;-65